AirNav    Bose A20 Aviation Headset
 
 767 users online  

MI26 Cloud Nine East Airport
Parkers Corners, Michigan, USA

GOING TO PARKERS CORNERS?


FAA INFORMATION EFFECTIVE 15 AUGUST 2019

Location

FAA Identifier: MI26
Lat/Long: 42-33-04.1200N 084-05-53.8400W
42-33.068667N 084-05.897333W
42.5511444,-84.0982889
(estimated)
Elevation: 930 ft. / 283 m (estimated)
Variation: 05W (1990)
From city: 1 mile SE of PARKERS CORNERS, MI
Time zone: UTC -4 (UTC -5 during Standard Time)
Zip code: 48137

Airport Operations

Airport use: Private use. Permission required prior to landing
Activation date: 12/1992
Control tower: no
ARTCC: CLEVELAND CENTER
FSS: LANSING FLIGHT SERVICE STATION
Attendance: UNATNDD
Wind indicator: yes
Segmented circle: no

Airport Communications

WX AWOS-3 at OZW (7 nm NE): 118.875 (517-546-4450)
WX AWOS-3 at TEW (14 nm W): 119.425 (517-676-5607)

Nearby radio navigation aids

VOR radial/distance  VOR name  Freq  Var
JXNr047/23.7JACKSON VOR/DME109.6005W
SVMr294/23.9SALEM VORTAC114.3003W
FNTr218/29.3FLINT VORTAC116.9006W
DXOr308/38.2DETROIT VOR/DME113.4006W

 
NDB name  Hdg/Dist  Freq  Var  ID
TECUMSEH349/32.423906WTCU - -.-. ..-

Airport Services

Runway Information

Runway 6/24

Dimensions: 3450 x 150 ft. / 1052 x 46 m
Surface: turf
RUNWAY 6  RUNWAY 24
Traffic pattern: leftleft
Obstructions: nonetrees

Airport Ownership and Management from official FAA records

Ownership: Privately-owned
Owner: TRACY TILLMAN & LISA COLLETTI
11088 WEST COON LAKE ROAD
WEBBERVILLE, MI 48892
Phone 517-223-8683
Manager: TRACY TILLMAN
11088 WEST COON LAKE ROAD
WEBBERVILLE, MI 48892
Phone 517-223-8683

Airport Operational Statistics

Aircraft based on the field: 6
Single engine airplanes: 5
Gliders airplanes: 1
    
Aircraft operations: 200/year
100% local general aviation

Additional Remarks

GLIDER TOWING AND FLIGHT TRAINING ACTIVITIES.
FOR CD CTC DETROIT APCH AT 800-499-8181.

Instrument Procedures

There are no published instrument procedures at MI26.

Some nearby airports with instrument procedures:

KOZW - Livingston County Spencer J Hardy Airport (7 nm NE)
KTEW - Mason Jewett Field Airport (14 nm W)
9G2 - Price's Airport (21 nm NE)
Y47 - Oakland Southwest Airport (21 nm E)
KJXN - Jackson County Airport-Reynolds Field (24 nm SW)
 
Loc | Ops | Rwys | IFR | FBO | Links
Com | Nav | Svcs | Stats | Notes
Aerial photo
WARNING: Photo may not be current or correct
Aerial photo of MI26 (Cloud Nine East Airport)
Taken in 2006

Do you have a better or more recent aerial photo of Cloud Nine East Airport that you would like to share? If so, please send us your photo.

 
Sectional chart

 
Airport distance calculator
Flying to Cloud Nine East Airport? Find the distance to fly.

From to MI26

Sunrise and sunset
Times for 22-Aug-2019
 Local
(UTC-4)
 Zulu
(UTC)
Morning civil twilight06:2210:22
Sunrise06:5210:52
Sunset20:2700:27
Evening civil twilight20:5700:57

Current date and time
Zulu (UTC)  22-Aug-2019 04:12:23
Local (UTC-4)  22-Aug-2019 00:12:23
 
METAR
KOZW 
7nm NE 
220356Z AUTO 33005KT 10SM SCT025 22/15 A2996 RMK AO2 T02200151
KTEW 
14nm W 
220356Z AUTO 01009KT 10SM CLR 21/15 A2996 RMK AO2 T02110146
TAF
KJXN 
24nm SW 
212150Z 2122/2218 26010G18KT P6SM VCSH BKN040 TEMPO 2122/2124 3SM SHRA FM220100 32004KT P6SM SCT120 FM221600 04008KT P6SM SCT050
KLAN 
26nm NW 
211921Z 2119/2218 27012G20KT P6SM VCSH BKN040 FM212200 31012G20KT P6SM FEW050 FM220200 33004KT P6SM SCT120 FM221600 04008KT P6SM SCT050
KFNT 
29nm NE 
211720Z 2118/2218 24012KT P6SM BKN035 FM212000 28013KT P6SM BKN045 FM220100 35004KT P6SM BKN200 FM221200 36007KT P6SM SKC FM221700 33007KT P6SM SCT050
NOTAMs
Click for the latest NOTAMs
NOTAMs are issued by the DoD/FAA and will open in a separate window not controlled by AirNav.

 

 
 

Would you like to see your business listed on this page?

 If your business provides an interesting product or service to pilots, flight crews, aircraft, or users of the Cloud Nine East Airport, you should consider listing it here.  To start the listing process, click on the button below
 
Add a business
 

Other Pages about Cloud Nine East Airport

Update a link
 
Copyright © AirNav, LLC. All rights reserved. Privacy Policy  Contact